createdAt,value
2018-03-23T00:00:53.529Z,20.35
2018-03-23T00:03:21.042Z,23.98
2018-03-23T00:05:48.105Z,24.98
2018-03-23T00:08:15.854Z,21.87
2018-03-23T00:10:42.877Z,20.12
2018-03-23T00:13:10.030Z,24.55
2018-03-23T00:15:37.118Z,23.40
2018-03-23T00:18:04.890Z,26.87
2018-03-23T00:20:31.874Z,23.85
2018-03-23T00:22:58.902Z,19.05
2018-03-23T00:25:26.718Z,17.95
2018-03-23T00:27:53.700Z,23.77
2018-03-23T00:30:20.700Z,24.85
2018-03-23T00:32:47.705Z,26.15
2018-03-23T00:35:14.698Z,20.95
2018-03-23T00:37:41.813Z,19.62
2018-03-23T00:40:08.828Z,22.95
2018-03-23T00:42:36.609Z,26.95
2018-03-23T00:45:03.675Z,22.87
2018-03-23T00:47:30.677Z,28.23
2018-03-23T00:49:57.689Z,28.02
2018-03-23T00:52:24.970Z,33.90
2018-03-23T00:54:52.746Z,29.00
2018-03-23T00:57:25.438Z,32.70
2018-03-23T00:59:52.452Z,22.48
2018-03-23T01:02:19.478Z,33.80
2018-03-23T01:04:47.406Z,31.05
2018-03-23T01:07:15.366Z,26.02
2018-03-23T01:09:43.194Z,32.17
2018-03-23T01:12:10.407Z,33.97
2018-03-23T01:14:37.410Z,31.12
2018-03-23T01:17:04.809Z,35.17
2018-03-23T01:19:32.217Z,25.42
2018-03-23T01:22:00.025Z,33.72
2018-03-23T01:24:27.017Z,27.58
2018-03-23T01:26:54.049Z,31.33
2018-03-23T01:29:21.337Z,31.37
2018-03-23T01:31:48.437Z,31.25
2018-03-23T01:34:15.477Z,31.40
2018-03-23T01:36:42.496Z,28.90
2018-03-23T01:39:09.481Z,32.10
2018-03-23T01:41:36.509Z,26.60
2018-03-23T01:44:03.563Z,26.15
2018-03-23T01:46:31.274Z,27.70
2018-03-23T01:48:58.307Z,27.55
2018-03-23T01:51:25.290Z,24.77
2018-03-23T01:53:53.077Z,27.40
2018-03-23T01:56:20.084Z,27.50
2018-03-23T01:58:47.076Z,26.65
2018-03-23T02:01:14.782Z,26.80
2018-03-23T02:03:41.908Z,23.48
2018-03-23T02:06:08.916Z,20.08
2018-03-23T02:08:36.654Z,22.15
2018-03-23T02:11:04.433Z,20.58
2018-03-23T02:13:32.221Z,25.08
2018-03-23T02:15:59.270Z,20.52
2018-03-23T02:18:26.315Z,21.35
2018-03-23T02:20:53.330Z,23.85
2018-03-23T02:23:20.694Z,23.12
2018-03-23T02:25:47.786Z,27.25
2018-03-23T02:28:14.766Z,22.15
2018-03-23T02:30:41.806Z,23.80
2018-03-23T02:33:09.203Z,22.37
2018-03-23T02:35:36.346Z,22.75
2018-03-23T02:38:04.116Z,22.70
2018-03-23T02:40:31.867Z,18.75
2018-03-23T02:42:59.669Z,23.55
2018-03-23T02:45:27.066Z,20.83
2018-03-23T02:47:54.106Z,19.08
2018-03-23T02:50:21.155Z,22.60
2018-03-23T02:52:48.313Z,26.80
2018-03-23T02:55:15.618Z,24.10
2018-03-23T02:57:43.448Z,18.45
2018-03-23T03:00:11.494Z,19.90
2018-03-23T03:02:38.601Z,23.42
2018-03-23T03:05:05.609Z,20.83
2018-03-23T03:07:32.976Z,20.90
2018-03-23T03:10:00.002Z,20.60
2018-03-23T03:12:27.084Z,25.55
2018-03-23T03:14:54.101Z,16.83
2018-03-23T03:17:21.342Z,24.85
2018-03-23T03:19:48.409Z,22.37
2018-03-23T03:22:15.518Z,24.08
2018-03-23T03:24:42.525Z,19.25
2018-03-23T03:27:09.529Z,24.37
2018-03-23T03:29:36.526Z,19.35
2018-03-23T03:32:03.590Z,22.75
2018-03-23T03:34:30.601Z,22.98
2018-03-23T03:36:57.613Z,27.77
2018-03-23T03:39:24.617Z,19.40
2018-03-23T03:41:51.698Z,19.05
2018-03-23T03:44:18.717Z,18.55
2018-03-23T03:46:45.705Z,21.00
2018-03-23T03:49:12.861Z,19.90
2018-03-23T03:51:40.058Z,21.05
2018-03-23T03:54:07.153Z,22.58
2018-03-23T03:56:34.130Z,25.75
2018-03-23T03:59:01.910Z,17.73
2018-03-23T04:01:36.613Z,20.65
2018-03-23T04:04:03.807Z,18.67
2018-03-23T04:06:30.796Z,26.40
2018-03-23T04:08:57.833Z,23.33
2018-03-23T04:11:24.812Z,22.92
2018-03-23T04:13:52.599Z,22.67
2018-03-23T04:16:19.609Z,21.60
2018-03-23T04:18:46.599Z,19.23
2018-03-23T04:21:13.590Z,17.83
2018-03-23T04:23:40.733Z,20.00
2018-03-23T04:26:07.762Z,21.92
2018-03-23T04:28:34.725Z,23.80
2018-03-23T04:31:01.751Z,21.37
2018-03-23T04:33:28.770Z,24.30
2018-03-23T04:35:55.771Z,23.12
2018-03-23T04:38:22.809Z,30.95
2018-03-23T04:40:49.806Z,27.60
2018-03-23T04:43:17.682Z,24.73
2018-03-23T04:45:44.786Z,20.30
2018-03-23T04:48:11.790Z,26.12
2018-03-23T04:50:38.777Z,21.08
2018-03-23T04:53:05.897Z,23.95
2018-03-23T04:55:33.093Z,25.37
2018-03-23T04:58:00.183Z,18.08
2018-03-23T05:00:27.158Z,26.42
2018-03-23T05:02:54.285Z,26.17
2018-03-23T05:05:21.332Z,25.12
2018-03-23T05:07:48.375Z,26.80
2018-03-23T05:10:15.490Z,23.05
2018-03-23T05:12:42.584Z,19.15
2018-03-23T05:15:09.606Z,26.17
2018-03-23T05:17:36.880Z,21.60
2018-03-23T05:20:04.734Z,22.48
2018-03-23T05:22:31.801Z,24.85
2018-03-23T05:24:58.796Z,24.80
2018-03-23T05:27:25.788Z,25.62
2018-03-23T05:29:52.794Z,25.83
2018-03-23T05:32:19.870Z,42.35
2018-03-23T05:34:46.866Z,24.12
2018-03-23T05:37:14.189Z,23.85
2018-03-23T05:39:42.441Z,22.00
2018-03-23T05:42:10.298Z,23.92
2018-03-23T05:44:37.481Z,23.30
2018-03-23T05:47:04.650Z,21.65
2018-03-23T05:49:31.758Z,22.37
2018-03-23T05:51:59.042Z,28.23
2018-03-23T05:54:28.257Z,23.12
2018-03-23T05:56:55.473Z,25.90
2018-03-23T05:59:22.515Z,28.73
2018-03-23T06:01:49.904Z,30.15
2018-03-23T06:04:16.922Z,25.67
2018-03-23T06:06:44.230Z,33.45
2018-03-23T06:09:11.384Z,22.90
2018-03-23T06:11:38.566Z,22.90
2018-03-23T06:14:05.778Z,25.17
2018-03-23T06:16:32.946Z,21.37
2018-03-23T06:19:00.078Z,28.25
2018-03-23T06:21:27.966Z,21.77
2018-03-23T06:23:55.333Z,23.12
2018-03-23T06:26:23.209Z,21.95
2018-03-23T06:28:50.370Z,28.73
2018-03-23T06:31:18.369Z,23.45
2018-03-23T06:33:46.178Z,30.17
2018-03-23T06:36:13.130Z,22.48
2018-03-23T06:38:40.349Z,25.40
2018-03-23T06:41:07.427Z,24.08
2018-03-23T06:43:34.682Z,28.80
2018-03-23T06:46:01.883Z,26.40
2018-03-23T06:48:28.959Z,26.23
2018-03-23T06:50:56.006Z,18.33
2018-03-23T06:53:23.214Z,21.23
2018-03-23T06:55:50.421Z,26.92
2018-03-23T06:58:17.593Z,24.83
2018-03-23T07:00:52.614Z,26.37
2018-03-23T07:03:19.953Z,25.52
2018-03-23T07:05:47.130Z,22.95
2018-03-23T07:08:14.202Z,25.05
2018-03-23T07:10:41.401Z,25.08
2018-03-23T07:13:08.578Z,23.45
2018-03-23T07:15:35.646Z,23.45
2018-03-23T07:18:02.854Z,21.55
2018-03-23T07:20:30.713Z,24.30
2018-03-23T07:22:58.669Z,20.62
2018-03-23T07:25:26.038Z,22.33
2018-03-23T07:27:53.113Z,30.42
2018-03-23T07:30:20.534Z,21.62
2018-03-23T07:32:48.611Z,20.65
2018-03-23T07:35:15.862Z,26.27
2018-03-23T07:37:43.282Z,24.75
2018-03-23T07:40:10.521Z,25.88
2018-03-23T07:42:37.857Z,26.70
2018-03-23T07:45:05.026Z,28.45
2018-03-23T07:47:32.813Z,19.73
2018-03-23T07:50:00.093Z,18.40
2018-03-23T07:52:27.174Z,29.83
2018-03-23T07:54:54.313Z,17.73
2018-03-23T07:57:21.389Z,22.17
2018-03-23T07:59:48.860Z,20.48
2018-03-23T08:02:16.149Z,21.35
2018-03-23T08:04:43.330Z,22.80
2018-03-23T08:07:10.406Z,25.98
2018-03-23T08:09:37.374Z,25.58
2018-03-23T08:12:04.697Z,25.05
2018-03-23T08:14:31.994Z,28.02
2018-03-23T08:16:59.017Z,21.77
2018-03-23T08:19:26.242Z,19.90
2018-03-23T08:21:53.629Z,22.23
2018-03-23T08:24:20.681Z,25.90
2018-03-23T08:26:47.901Z,21.60
2018-03-23T08:29:15.022Z,23.77
2018-03-23T08:31:42.278Z,24.30
2018-03-23T08:34:09.326Z,23.75
2018-03-23T08:36:37.826Z,20.27
2018-03-23T08:39:05.169Z,23.95
2018-03-23T08:41:32.230Z,22.15
2018-03-23T08:43:59.873Z,21.77
2018-03-23T08:46:27.108Z,21.20
2018-03-23T08:48:54.166Z,21.95
2018-03-23T08:51:21.370Z,23.87
2018-03-23T08:53:48.394Z,18.92
2018-03-23T08:56:15.621Z,21.40
2018-03-23T08:58:43.456Z,23.05
2018-03-23T09:01:11.430Z,22.20
2018-03-23T09:03:38.617Z,20.73
2018-03-23T09:06:06.557Z,22.15
2018-03-23T09:08:33.678Z,19.45
2018-03-23T09:11:00.773Z,22.13
2018-03-23T09:13:28.005Z,23.75
2018-03-23T09:15:55.194Z,20.58
2018-03-23T09:18:22.220Z,23.27
2018-03-23T09:20:49.409Z,22.25
2018-03-23T09:23:16.663Z,20.05
2018-03-23T09:25:43.854Z,23.20
2018-03-23T09:28:14.470Z,23.00
2018-03-23T09:30:42.425Z,19.75
2018-03-23T09:33:09.773Z,21.20
2018-03-23T09:35:36.982Z,25.73
2018-03-23T09:38:03.987Z,22.62
2018-03-23T09:40:31.836Z,20.10
2018-03-23T09:42:59.737Z,18.60
2018-03-23T09:45:26.940Z,20.70
2018-03-23T09:47:54.153Z,19.12
2018-03-23T09:50:21.243Z,26.77
2018-03-23T09:52:48.654Z,21.45
2018-03-23T09:55:15.662Z,21.87
2018-03-23T09:57:43.472Z,22.75
2018-03-23T10:00:10.756Z,22.25
2018-03-23T10:02:38.018Z,20.27
2018-03-23T10:05:06.003Z,19.35
2018-03-23T10:07:33.218Z,21.73
2018-03-23T10:10:00.297Z,21.95
2018-03-23T10:12:27.529Z,22.75
2018-03-23T10:14:54.685Z,27.63
2018-03-23T10:17:22.587Z,20.90
2018-03-23T10:19:51.361Z,18.07
2018-03-23T10:22:18.582Z,16.85
2018-03-23T10:24:45.814Z,18.10
2018-03-23T10:27:12.862Z,15.77
2018-03-23T10:29:41.795Z,19.30
2018-03-23T10:32:09.083Z,18.70
2018-03-23T10:34:36.285Z,17.40
2018-03-23T10:37:04.125Z,16.47
2018-03-23T10:39:31.295Z,17.20
2018-03-23T10:41:58.390Z,21.30
2018-03-23T10:44:25.502Z,16.90
2018-03-23T10:46:52.612Z,19.83
2018-03-23T10:49:19.690Z,17.60
2018-03-23T10:51:48.076Z,17.40
2018-03-23T10:54:17.201Z,14.87
2018-03-23T10:56:45.986Z,17.50
2018-03-23T10:59:13.857Z,14.47
2018-03-23T11:01:47.770Z,15.63
2018-03-23T11:04:15.647Z,15.90
2018-03-23T11:06:42.874Z,13.93
2018-03-23T11:09:10.241Z,14.27
2018-03-23T11:11:38.047Z,14.87
2018-03-23T11:14:05.147Z,13.47
2018-03-23T11:16:32.159Z,15.17
2018-03-23T11:18:59.292Z,17.03
2018-03-23T11:21:26.537Z,15.40
2018-03-23T11:23:53.740Z,14.40
2018-03-23T11:26:21.268Z,15.13
2018-03-23T11:28:48.550Z,14.60
2018-03-23T11:31:15.643Z,15.83
2018-03-23T11:33:43.754Z,15.47
2018-03-23T11:36:10.955Z,18.33
2018-03-23T11:38:38.218Z,15.63
2018-03-23T11:41:05.371Z,16.60
2018-03-23T11:43:32.738Z,16.17
2018-03-23T11:45:59.750Z,16.20
2018-03-23T11:48:27.758Z,16.67
2018-03-23T11:50:55.068Z,16.93
2018-03-23T11:53:23.213Z,15.70
2018-03-23T11:55:50.294Z,16.47
2018-03-23T11:58:18.262Z,16.47
2018-03-23T12:00:45.345Z,15.03
2018-03-23T12:03:12.442Z,15.53
2018-03-23T12:05:39.440Z,18.00
2018-03-23T12:08:06.662Z,15.90
2018-03-23T12:10:33.913Z,16.30
2018-03-23T12:13:01.258Z,15.70
2018-03-23T12:15:28.382Z,15.07
2018-03-23T12:17:55.422Z,14.50
2018-03-23T12:20:22.469Z,15.37
2018-03-23T12:22:49.521Z,14.20
2018-03-23T12:25:16.521Z,16.03
2018-03-23T12:27:44.314Z,15.97
2018-03-23T12:30:11.357Z,14.20
2018-03-23T12:32:38.673Z,15.47
2018-03-23T12:35:06.549Z,16.50
2018-03-23T12:37:33.557Z,17.10
2018-03-23T12:40:00.842Z,14.23
2018-03-23T12:42:27.969Z,16.20
2018-03-23T12:44:54.974Z,13.60
2018-03-23T12:47:21.997Z,15.17
2018-03-23T12:49:49.001Z,14.00
2018-03-23T12:52:16.011Z,14.57
2018-03-23T12:54:43.197Z,15.20
2018-03-23T12:57:10.421Z,13.60
2018-03-23T12:59:37.437Z,15.40
2018-03-23T13:02:04.770Z,17.57
2018-03-23T13:04:31.994Z,15.10
2018-03-23T13:06:59.063Z,16.13
2018-03-23T13:09:27.110Z,15.53
2018-03-23T13:11:54.176Z,15.03
2018-03-23T13:14:21.170Z,17.97
2018-03-23T13:19:22.751Z,14.07
2018-03-23T13:21:50.039Z,14.73
2018-03-23T13:24:17.136Z,15.70
2018-03-23T13:26:44.306Z,15.47
2018-03-23T13:29:12.342Z,16.23
2018-03-23T13:31:39.397Z,19.57
2018-03-23T13:34:06.506Z,16.03
2018-03-23T13:36:33.697Z,18.23
2018-03-23T13:39:01.067Z,12.90
2018-03-23T13:41:28.134Z,14.50
2018-03-23T13:43:55.397Z,16.50
2018-03-23T13:46:22.594Z,16.30
2018-03-23T13:48:50.331Z,14.67
2018-03-23T13:51:17.370Z,17.03
2018-03-23T13:53:44.669Z,16.87
2018-03-23T13:56:11.979Z,18.20
2018-03-23T13:58:45.134Z,17.10
2018-03-23T14:01:18.461Z,14.83
2018-03-23T14:03:46.356Z,15.77
2018-03-23T14:06:14.286Z,16.27
2018-03-23T14:08:41.379Z,17.60
2018-03-23T14:11:08.597Z,17.53
2018-03-23T14:13:35.819Z,16.40
2018-03-23T14:16:02.974Z,18.87
2018-03-23T14:18:30.137Z,20.63
2018-03-23T14:20:57.909Z,19.03
2018-03-23T14:23:25.753Z,17.07
2018-03-23T14:25:52.819Z,14.87
2018-03-23T14:28:20.961Z,16.63
2018-03-23T14:30:49.096Z,15.40
2018-03-23T14:33:16.326Z,16.63
2018-03-23T14:35:43.564Z,15.70
2018-03-23T14:38:11.389Z,15.47
2018-03-23T14:40:38.551Z,16.53
2018-03-23T14:43:05.601Z,21.63
2018-03-23T14:45:33.609Z,17.23
2018-03-23T14:48:00.830Z,18.40
2018-03-23T14:50:27.980Z,19.07
2018-03-23T14:52:55.994Z,15.87
2018-03-23T14:55:23.205Z,16.23
2018-03-23T14:57:50.390Z,20.00
2018-03-23T15:00:18.198Z,16.43
2018-03-23T15:02:46.078Z,17.30
2018-03-23T15:05:13.305Z,19.10
2018-03-23T15:07:40.317Z,19.27
2018-03-23T15:10:07.321Z,19.53
2018-03-23T15:12:34.401Z,16.53
2018-03-23T15:15:01.665Z,23.17
2018-03-23T15:17:29.155Z,17.03
2018-03-23T15:19:56.224Z,15.97
2018-03-23T15:22:23.277Z,21.33
2018-03-23T15:24:50.498Z,25.07
2018-03-23T15:27:17.760Z,16.60
2018-03-23T15:29:44.841Z,15.83
2018-03-23T15:32:13.050Z,17.37
2018-03-23T15:34:40.283Z,13.67
2018-03-23T15:37:08.239Z,15.57
2018-03-23T15:39:35.454Z,15.37
2018-03-23T15:42:02.953Z,15.00
2018-03-23T15:44:30.125Z,15.27
2018-03-23T15:46:57.915Z,15.70
2018-03-23T15:49:25.865Z,14.47
2018-03-23T15:51:53.086Z,15.97
2018-03-23T15:54:21.322Z,15.87
2018-03-23T15:56:48.401Z,16.20
2018-03-23T15:59:15.561Z,15.70
2018-03-23T16:01:42.797Z,17.67
2018-03-23T16:04:10.030Z,16.50
2018-03-23T16:06:37.142Z,11.40
2018-03-23T16:09:05.206Z,8.40
2018-03-23T16:11:32.537Z,6.00
2018-03-23T16:13:59.854Z,4.70
2018-03-23T16:16:27.853Z,1.60
2018-03-23T16:18:54.876Z,1.87
2018-03-23T16:21:21.896Z,1.40
2018-03-23T16:23:49.877Z,1.30
2018-03-23T16:26:17.073Z,2.80
2018-03-23T16:28:44.129Z,3.07
2018-03-23T16:31:11.274Z,1.60
2018-03-23T16:33:39.188Z,1.90
2018-03-23T16:36:06.221Z,1.90
2018-03-23T16:38:33.451Z,1.90
2018-03-23T16:41:00.657Z,1.30
2018-03-23T16:43:28.586Z,2.80
2018-03-23T16:45:55.585Z,1.67
2018-03-23T16:48:22.814Z,1.50
2018-03-23T16:50:50.141Z,1.40
2018-03-23T16:53:17.297Z,1.83
2018-03-23T16:55:44.597Z,1.60
2018-03-23T16:58:11.898Z,2.80
2018-03-23T17:00:38.897Z,1.40
2018-03-23T17:03:05.976Z,2.63
2018-03-23T17:05:33.231Z,1.23
2018-03-23T17:08:00.361Z,2.90
2018-03-23T17:10:27.564Z,1.60
2018-03-23T17:12:55.041Z,3.90
2018-03-23T17:15:23.011Z,1.90
2018-03-23T17:17:50.902Z,2.10
2018-03-23T17:20:18.390Z,2.37
2018-03-23T17:22:45.671Z,1.83
2018-03-23T17:25:12.936Z,2.10
2018-03-23T17:27:40.093Z,4.73
2018-03-23T17:30:07.364Z,3.80
2018-03-23T17:32:36.498Z,4.27
2018-03-23T17:35:03.787Z,2.27
2018-03-23T17:37:31.853Z,3.10
2018-03-23T17:39:59.676Z,5.07
2018-03-23T17:42:27.574Z,4.45
2018-03-23T17:44:54.614Z,3.23
2018-03-23T17:47:21.822Z,1.80
2018-03-23T17:49:48.869Z,1.70
2018-03-23T17:52:16.204Z,2.90
2018-03-23T17:54:43.421Z,3.87
2018-03-23T17:57:10.594Z,2.87
2018-03-23T17:59:37.768Z,3.07
2018-03-23T18:02:04.946Z,2.33
2018-03-23T18:04:32.600Z,2.62
2018-03-23T18:06:59.690Z,4.17
2018-03-23T18:09:27.731Z,4.00
2018-03-23T18:11:55.514Z,3.27
2018-03-23T18:14:22.582Z,3.10
2018-03-23T18:16:49.633Z,2.28
2018-03-23T18:19:17.524Z,4.65
2018-03-23T18:21:44.546Z,2.30
2018-03-23T18:24:11.966Z,2.00
2018-03-23T18:26:39.093Z,2.55
2018-03-23T18:29:06.358Z,3.10
2018-03-23T18:31:33.510Z,5.72
2018-03-23T18:34:01.694Z,1.85
2018-03-23T18:36:28.830Z,3.17
2018-03-23T18:38:56.654Z,3.00
2018-03-23T18:41:23.796Z,3.28
2018-03-23T18:43:51.782Z,3.50
2018-03-23T18:46:18.812Z,2.55
2018-03-23T18:48:45.846Z,2.85
2018-03-23T18:51:13.012Z,3.42
2018-03-23T18:53:40.178Z,3.87
2018-03-23T18:56:07.234Z,4.65
2018-03-23T18:58:34.534Z,6.57
2018-03-23T19:01:01.944Z,13.88
2018-03-23T19:03:29.094Z,14.15
2018-03-23T19:05:56.251Z,15.07
2018-03-23T19:08:23.341Z,19.35
2018-03-23T19:10:50.470Z,21.75
2018-03-23T19:13:17.763Z,18.98
2018-03-23T19:15:45.593Z,19.33
2018-03-23T19:18:13.530Z,17.90
2018-03-23T19:20:40.747Z,14.38
2018-03-23T19:23:07.830Z,14.85
2018-03-23T19:25:34.870Z,11.35
2018-03-23T19:28:02.105Z,10.98
2018-03-23T19:30:29.934Z,11.50
2018-03-23T19:32:57.324Z,10.48
2018-03-23T19:35:24.510Z,11.95
2018-03-23T19:37:52.502Z,12.73
2018-03-23T19:40:19.626Z,11.43
2018-03-23T19:42:46.866Z,10.13
2018-03-23T19:45:14.092Z,12.52
2018-03-23T19:47:41.445Z,11.55
2018-03-23T19:50:09.375Z,9.98
2018-03-23T19:52:36.938Z,8.50
2018-03-23T19:55:04.897Z,10.32
2018-03-23T19:57:32.040Z,10.65
2018-03-23T20:00:00.111Z,8.73
2018-03-23T20:02:27.322Z,8.77
2018-03-23T20:04:54.977Z,11.05
2018-03-23T20:07:22.950Z,6.68
2018-03-23T20:09:50.346Z,15.20
2018-03-23T20:12:17.645Z,11.77
2018-03-23T20:14:45.560Z,12.88
2018-03-23T20:17:12.855Z,8.52
2018-03-23T20:19:40.035Z,8.43
2018-03-23T20:22:07.339Z,10.57
2018-03-23T20:24:34.366Z,8.90
2018-03-23T20:27:07.487Z,13.35
2018-03-23T20:29:35.858Z,14.93
2018-03-23T20:32:09.978Z,17.20
2018-03-23T20:34:37.046Z,12.50
2018-03-23T20:37:04.214Z,12.35
2018-03-23T20:39:31.537Z,10.82
2018-03-23T20:41:58.965Z,11.12
2018-03-23T20:44:26.912Z,13.82
2018-03-23T20:46:55.314Z,12.05
2018-03-23T20:49:23.059Z,18.50
2018-03-23T20:51:50.202Z,13.95
2018-03-23T20:54:17.358Z,13.85
2018-03-23T20:56:44.607Z,23.27
2018-03-23T20:59:11.875Z,14.82
2018-03-23T21:01:39.133Z,19.83
2018-03-23T21:04:06.677Z,15.73
2018-03-23T21:06:33.874Z,14.43
2018-03-23T21:09:00.995Z,15.55
2018-03-23T21:11:28.497Z,12.50
2018-03-23T21:13:55.842Z,11.80
2018-03-23T21:16:23.095Z,11.88
2018-03-23T21:18:50.931Z,9.35
2018-03-23T21:21:18.141Z,9.55
2018-03-23T21:23:45.381Z,7.55
2018-03-23T21:26:13.157Z,8.77
2018-03-23T21:28:40.321Z,10.25
2018-03-23T21:31:07.656Z,13.65
2018-03-23T21:33:34.911Z,10.30
2018-03-23T21:36:02.060Z,9.38
2018-03-23T21:38:29.397Z,8.60
2018-03-23T21:40:56.488Z,7.93
2018-03-23T21:43:23.624Z,10.35
2018-03-23T21:45:51.042Z,7.50
2018-03-23T21:48:18.300Z,11.02
2018-03-23T21:50:45.651Z,14.60
2018-03-23T21:53:13.042Z,14.68
2018-03-23T21:55:40.217Z,21.85
2018-03-23T21:58:07.342Z,12.98
2018-03-23T22:00:34.727Z,15.68
2018-03-23T22:03:02.255Z,15.02
2018-03-23T22:05:29.512Z,17.90
2018-03-23T22:07:57.034Z,14.95
2018-03-23T22:10:24.311Z,13.95
2018-03-23T22:12:51.650Z,11.00
2018-03-23T22:15:18.893Z,10.05
2018-03-23T22:17:46.776Z,11.65
2018-03-23T22:20:14.738Z,7.32
2018-03-23T22:22:41.806Z,7.90
2018-03-23T22:25:09.113Z,7.25
2018-03-23T22:27:36.350Z,6.50
2018-03-23T22:30:03.698Z,8.32
2018-03-23T22:32:31.027Z,10.50
2018-03-23T22:34:58.118Z,12.00
2018-03-23T22:37:25.895Z,13.02
2018-03-23T22:39:53.220Z,15.30
2018-03-23T22:42:20.433Z,16.08
2018-03-23T22:44:47.512Z,10.77
2018-03-23T22:47:15.092Z,14.80
2018-03-23T22:49:42.204Z,13.07
2018-03-23T22:52:09.365Z,11.07
2018-03-23T22:54:36.625Z,11.98
2018-03-23T22:57:04.198Z,13.80
2018-03-23T22:59:31.478Z,7.53
2018-03-23T23:01:58.777Z,7.47
2018-03-23T23:04:26.818Z,5.53
2018-03-23T23:06:53.985Z,5.85
2018-03-23T23:09:21.262Z,6.32
2018-03-23T23:11:48.290Z,5.72
2018-03-23T23:14:15.361Z,6.00
2018-03-23T23:16:43.397Z,10.65
2018-03-23T23:19:10.672Z,5.90
2018-03-23T23:21:38.574Z,6.55
2018-03-23T23:24:05.817Z,7.10
2018-03-23T23:26:33.004Z,5.72
2018-03-23T23:29:00.343Z,6.28
2018-03-23T23:31:27.516Z,6.87
2018-03-23T23:33:54.962Z,10.43
2018-03-23T23:36:22.795Z,6.25
2018-03-23T23:38:49.986Z,6.40
2018-03-23T23:41:17.038Z,7.10
2018-03-23T23:43:44.421Z,7.00
2018-03-23T23:46:11.635Z,7.53
2018-03-23T23:48:38.656Z,8.88
2018-03-23T23:51:05.669Z,6.57
2018-03-23T23:53:33.143Z,6.72
2018-03-23T23:56:01.034Z,6.25
2018-03-23T23:58:28.054Z,6.35
